Time;durP1;ratioP1;P1;durP2;ratioP2;P2;SDS_P1;SDS_P2;PMS_P1;PMS_P2;Temp;Humidity;BMP_temperature;BMP_pressure;BME280_temperature;BME280_humidity;BME280_pressure;Samples;Min_cycle;Max_cycle;Signal;HPM_P1;HPM_P2
2021/06/14 00:00:12;;;;;;;5.60;2.50;;;;;;;12.21;68.94;100556.48;126956;1090;101808;-83
2021/06/14 00:03:15;;;;;;;3.63;2.30;;;;;;;12.16;68.88;100561.88;126808;1090;114547;-82
2021/06/14 00:06:04;;;;;;;6.53;2.33;;;;;;;12.13;69.05;100561.98;126861;1090;103039;-82
2021/06/14 00:08:53;;;;;;;6.03;2.50;;;;;;;12.09;68.84;100563.00;126762;1088;114128;-82
2021/06/14 00:11:42;;;;;;;7.57;2.67;;;;;;;12.06;68.88;100560.50;126869;1090;103514;-82
2021/06/14 00:14:34;;;;;;;6.97;2.77;;;;;;;12.04;69.22;100559.70;126788;1090;114311;-82
2021/06/14 00:17:25;;;;;;;7.10;2.70;;;;;;;12.03;68.96;100565.83;126759;1088;102963;-84
2021/06/14 00:20:17;;;;;;;5.90;2.53;;;;;;;11.98;69.08;100565.95;126607;1088;114275;-84
2021/06/14 00:23:13;;;;;;;7.83;2.37;;;;;;;11.95;68.87;100559.98;126884;1090;102866;-84
2021/06/14 00:26:09;;;;;;;3.80;2.40;;;;;;;11.92;69.17;100565.31;126791;1090;103007;-83
2021/06/14 00:28:57;;;;;;;6.73;2.60;;;;;;;11.90;69.21;100562.75;126770;1088;102980;-84
2021/06/14 00:31:46;;;;;;;5.70;2.40;;;;;;;11.86;69.07;100563.77;126806;1090;101798;-84
2021/06/14 00:34:35;;;;;;;5.50;2.30;;;;;;;11.82;69.12;100566.50;126699;1090;114520;-82
2021/06/14 00:37:22;;;;;;;6.33;2.63;;;;;;;11.79;69.25;100564.84;126937;1090;102967;-82
2021/06/14 00:40:11;;;;;;;4.70;2.33;;;;;;;11.76;69.18;100565.77;126660;1090;114184;-82
2021/06/14 00:43:02;;;;;;;4.07;2.17;;;;;;;11.76;69.26;100562.30;126946;1089;102941;-82
2021/06/14 00:45:51;;;;;;;8.80;2.23;;;;;;;11.76;69.10;100572.76;126828;1090;114250;-82
2021/06/14 00:48:44;;;;;;;8.00;2.53;;;;;;;11.72;69.30;100563.31;126931;1090;103076;-82
2021/06/14 00:51:33;;;;;;;4.50;2.10;;;;;;;11.74;69.27;100561.50;126995;1089;114492;-82
2021/06/14 00:54:22;;;;;;;5.80;2.77;;;;;;;11.70;69.32;100560.75;127037;1090;100874;-81
2021/06/14 00:57:13;;;;;;;3.93;1.93;;;;;;;11.70;69.32;100560.75;126870;1090;114390;-82
2021/06/14 01:00:06;;;;;;;4.93;2.50;;;;;;;11.72;69.49;100558.09;126884;1090;102227;-81
2021/06/14 01:03:03;;;;;;;5.70;2.10;;;;;;;11.74;69.43;100567.58;126901;1089;114255;-81
2021/06/14 01:05:58;;;;;;;6.20;2.40;;;;;;;11.76;69.31;100570.14;126953;1089;103585;-81
2021/06/14 01:08:51;;;;;;;5.33;2.10;;;;;;;11.77;69.42;100564.02;126712;1090;114268;-83
2021/06/14 01:12:13;;;;;;;5.03;1.80;;;;;;;11.79;69.57;100563.09;126986;1090;103464;-81
2021/06/14 01:15:16;;;;;;;6.17;2.23;;;;;;;11.82;69.33;100567.36;127008;1090;114443;-82
2021/06/14 01:18:10;;;;;;;9.80;2.80;;;;;;;11.83;69.40;100557.75;126982;1088;103047;-82
2021/06/14 01:21:13;;;;;;;5.93;2.57;;;;;;;11.82;69.41;100562.13;126687;1090;114640;-84
2021/06/14 01:24:18;;;;;;;7.93;2.70;;;;;;;11.84;69.39;100568.16;126826;1089;101184;-83
2021/06/14 01:27:11;;;;;;;7.37;2.10;;;;;;;11.85;69.37;100567.28;126712;1090;114127;-84
2021/06/14 01:30:15;;;;;;;5.23;2.27;;;;;;;11.86;69.31;100571.61;127113;1088;102880;-82
2021/06/14 01:33:10;;;;;;;5.40;2.20;;;;;;;11.84;69.22;100560.31;126811;1089;114423;-83
2021/06/14 01:36:12;;;;;;;4.50;2.27;;;;;;;11.82;69.42;100564.74;126974;1088;103087;-82
2021/06/14 01:39:06;;;;;;;8.43;2.37;;;;;;;11.80;69.28;100563.94;127077;1090;113106;-82
2021/06/14 01:41:59;;;;;;;5.07;2.27;;;;;;;11.79;69.50;100570.07;127042;1090;102852;-82
2021/06/14 01:44:49;;;;;;;5.87;2.43;;;;;;;11.80;69.45;100577.00;127011;1090;113058;-82
2021/06/14 01:47:43;;;;;;;7.07;2.37;;;;;;;11.79;69.49;100572.69;126923;1089;103345;-82
2021/06/14 01:50:36;;;;;;;3.17;1.97;;;;;;;11.78;69.48;100569.22;126849;1090;114263;-84
2021/06/14 01:53:26;;;;;;;6.77;2.57;;;;;;;11.77;69.23;100579.69;126982;1090;102847;-84
2021/06/14 01:56:16;;;;;;;7.53;2.93;;;;;;;11.75;69.63;100584.11;127118;1090;102938;-82
2021/06/14 01:59:08;;;;;;;9.50;2.67;;;;;;;11.72;69.38;100578.98;126787;1090;113993;-82
2021/06/14 02:02:02;;;;;;;4.70;2.13;;;;;;;11.70;69.68;100580.80;126860;1088;103256;-81
2021/06/14 02:04:52;;;;;;;5.60;2.30;;;;;;;11.67;69.66;100579.14;126842;1090;113099;-81
2021/06/14 02:07:54;;;;;;;4.73;2.03;;;;;;;11.68;69.62;100574.77;127086;1089;102887;-81
2021/06/14 02:10:45;;;;;;;6.53;2.40;;;;;;;11.69;69.67;100568.64;126965;1089;113107;-82
2021/06/14 02:13:35;;;;;;;6.27;2.50;;;;;;;11.69;69.86;100569.50;127023;1090;102857;-81
2021/06/14 02:16:29;;;;;;;7.33;3.50;;;;;;;11.70;69.71;100568.59;126910;1090;113030;-81
2021/06/14 02:19:19;;;;;;;8.60;2.50;;;;;;;11.68;69.74;100561.70;126893;1090;102844;-82
2021/06/14 02:22:14;;;;;;;4.43;2.37;;;;;;;11.68;69.87;100557.34;126889;1089;114140;-82
2021/06/14 02:25:10;;;;;;;7.37;2.30;;;;;;;11.69;69.79;100566.03;127029;1090;103355;-82
2021/06/14 02:28:01;;;;;;;6.33;2.60;;;;;;;11.68;69.84;100566.93;126881;1090;114240;-82
2021/06/14 02:30:51;;;;;;;5.17;2.23;;;;;;;11.66;69.84;100579.16;126917;1088;102894;-82
2021/06/14 02:33:42;;;;;;;7.03;2.40;;;;;;;11.66;69.73;100581.77;126792;1090;114149;-83
2021/06/14 02:36:35;;;;;;;8.23;2.20;;;;;;;11.68;69.97;100574.77;126984;1089;102975;-82
2021/06/14 02:39:32;;;;;;;4.60;2.73;;;;;;;11.68;70.01;100577.38;126782;1090;114361;-82
2021/06/14 02:42:32;;;;;;;5.00;2.30;;;;;;;11.67;70.10;100575.64;126918;1090;102913;-83
2021/06/14 02:45:23;;;;;;;4.65;2.20;;;;;;;11.68;70.00;100580.00;126821;1089;113114;-83
2021/06/14 02:48:16;;;;;;;6.23;3.20;;;;;;;11.70;70.06;100580.80;126820;1090;101333;-83
2021/06/14 02:51:07;;;;;;;8.33;2.40;;;;;;;11.69;69.97;100587.78;126899;1090;114259;-82
2021/06/14 02:54:04;;;;;;;13.20;7.50;;;;;;;11.69;69.72;100593.02;127023;1090;102973;-83
2021/06/14 02:57:03;;;;;;;6.57;3.40;;;;;;;11.69;70.05;100598.23;126871;1089;114649;-82
2021/06/14 02:59:55;;;;;;;5.67;2.50;;;;;;;11.73;70.02;100598.98;126790;1088;102853;-82
2021/06/14 03:02:48;;;;;;;6.63;2.60;;;;;;;11.75;70.00;100605.02;126845;1090;113249;-82
2021/06/14 03:05:40;;;;;;;5.03;2.23;;;;;;;11.74;70.22;100604.16;126970;1089;102807;-82
2021/06/14 03:08:31;;;;;;;8.20;2.80;;;;;;;11.76;70.12;100622.41;127031;1089;103007;-82
2021/06/14 03:11:25;;;;;;;5.10;2.60;;;;;;;11.78;70.10;100612.76;126731;1090;114195;-81
2021/06/14 03:14:15;;;;;;;5.00;2.53;;;;;;;11.80;70.10;100606.61;126839;1089;101296;-81
2021/06/14 03:17:06;;;;;;;6.90;2.70;;;;;;;11.81;70.21;100612.69;126762;1089;114298;-81
2021/06/14 03:19:57;;;;;;;4.37;2.50;;;;;;;11.84;70.17;100603.89;127008;1089;102798;-81
2021/06/14 03:22:48;;;;;;;7.30;2.93;;;;;;;11.85;70.04;100606.48;126790;1089;114344;-81
2021/06/14 03:25:37;;;;;;;8.10;3.30;;;;;;;11.87;70.08;100603.82;126921;1089;103029;-80
2021/06/14 03:28:28;;;;;;;7.50;2.93;;;;;;;11.90;69.97;100604.58;126784;1090;113013;-80
2021/06/14 03:31:17;;;;;;;7.13;2.87;;;;;;;11.94;70.06;100610.55;126824;1089;102938;-83
2021/06/14 03:34:07;;;;;;;5.20;2.63;;;;;;;11.96;70.00;100609.59;126755;1090;114218;-81
2021/06/14 03:36:58;;;;;;;7.87;3.17;;;;;;;11.98;69.86;100610.39;126950;1090;102867;-81
2021/06/14 03:39:47;;;;;;;6.97;2.67;;;;;;;12.04;69.59;100619.83;126757;1090;114762;-81
2021/06/14 03:42:36;;;;;;;5.47;2.90;;;;;;;12.08;69.71;100624.05;126974;1089;101705;-81
2021/06/14 03:45:27;;;;;;;7.83;2.83;;;;;;;12.13;69.66;100616.89;126828;1088;114474;-81
2021/06/14 03:48:16;;;;;;;7.40;3.05;;;;;;;12.19;69.57;100618.45;126890;1089;102850;-81
2021/06/14 03:51:05;;;;;;;7.07;2.80;;;;;;;12.22;69.63;100624.45;126796;1090;114392;-81
2021/06/14 03:53:56;;;;;;;5.70;2.43;;;;;;;12.26;69.63;100627.81;126871;1090;102950;-82
2021/06/14 03:56:44;;;;;;;4.50;2.45;;;;;;;12.34;69.34;100623.17;126872;1089;102847;-81
2021/06/14 03:59:34;;;;;;;7.77;3.67;;;;;;;12.38;69.17;100628.24;126755;1090;114143;-81
2021/06/14 04:02:26;;;;;;;4.37;2.47;;;;;;;12.46;69.34;100624.53;126735;1088;102980;-83
2021/06/14 04:05:14;;;;;;;5.20;2.77;;;;;;;12.50;69.29;100632.22;126611;1090;113110;-83
2021/06/14 04:08:29;;;;;;;5.67;2.40;;;;;;;12.56;68.92;100632.00;126810;1089;102876;-83
2021/06/14 04:11:20;;;;;;;7.77;2.50;;;;;;;12.56;69.03;100626.77;126592;1089;114236;-83
2021/06/14 04:14:12;;;;;;;10.70;2.60;;;;;;;12.63;68.82;100630.05;126822;1089;103570;-81
2021/06/14 04:17:01;;;;;;;6.73;2.60;;;;;;;12.69;68.86;100632.44;126742;1090;113373;-83
2021/06/14 04:19:51;;;;;;;9.33;3.07;;;;;;;12.75;68.88;100628.75;126882;1090;102881;-82
2021/06/14 04:22:41;;;;;;;6.20;3.10;;;;;;;12.82;68.67;100632.88;126669;1089;114115;-82
2021/06/14 04:25:30;;;;;;;6.30;2.80;;;;;;;12.88;68.64;100643.13;126947;1090;102856;-81
2021/06/14 04:28:20;;;;;;;5.43;2.53;;;;;;;12.94;68.26;100629.84;126792;1089;114211;-81
2021/06/14 04:31:09;;;;;;;6.27;2.77;;;;;;;13.03;68.43;100631.25;126768;1090;102908;-81
2021/06/14 04:33:58;;;;;;;5.83;2.73;;;;;;;13.09;68.56;100626.64;126752;1089;114110;-83
2021/06/14 04:36:47;;;;;;;7.20;2.67;;;;;;;13.15;68.12;100633.44;126810;1090;103028;-82
2021/06/14 04:39:36;;;;;;;7.73;3.50;;;;;;;13.17;68.10;100629.00;126868;1090;113223;-81
2021/06/14 04:42:26;;;;;;;8.27;3.10;;;;;;;13.23;68.14;100623.55;126891;1090;102847;-81
2021/06/14 04:45:15;;;;;;;5.87;2.67;;;;;;;13.30;68.16;100622.44;126760;1089;114496;-81
2021/06/14 04:48:04;;;;;;;7.83;3.00;;;;;;;13.40;67.98;100620.30;126846;1089;102889;-81
2021/06/14 04:50:54;;;;;;;7.47;3.20;;;;;;;13.48;68.00;100629.60;126814;1090;102911;-82
2021/06/14 04:53:43;;;;;;;6.97;2.70;;;;;;;13.59;67.93;100627.41;126638;1090;114142;-82
2021/06/14 04:56:31;;;;;;;6.07;2.77;;;;;;;13.71;67.55;100630.48;126830;1089;102875;-82
2021/06/14 04:59:19;;;;;;;7.77;3.20;;;;;;;13.80;67.71;100635.34;126701;1090;114124;-82
2021/06/14 05:02:09;;;;;;;6.53;2.57;;;;;;;13.91;67.48;100627.92;126874;1089;101878;-82
2021/06/14 05:04:57;;;;;;;6.43;2.63;;;;;;;14.02;67.30;100630.13;126713;1090;114319;-82
2021/06/14 05:07:47;;;;;;;7.13;2.53;;;;;;;14.13;66.98;100634.00;126810;1090;103357;-82
2021/06/14 05:10:35;;;;;;;8.93;4.37;;;;;;;14.24;66.83;100630.95;126744;1090;113211;-82
2021/06/14 05:13:23;;;;;;;9.57;4.53;;;;;;;14.39;66.35;100635.58;126746;1090;102922;-81
2021/06/14 05:16:11;;;;;;;6.70;3.87;;;;;;;14.56;66.55;100634.91;126768;1089;114726;-81
2021/06/14 05:19:00;;;;;;;6.83;3.10;;;;;;;14.75;65.86;100637.59;126840;1090;103004;-82
2021/06/14 05:21:48;;;;;;;8.70;4.43;;;;;;;14.93;65.79;100644.67;126867;1088;114321;-81
2021/06/14 05:24:35;;;;;;;9.13;3.37;;;;;;;15.14;65.33;100644.64;126916;1090;102927;-81
2021/06/14 05:27:24;;;;;;;6.33;2.40;;;;;;;15.35;64.87;100644.52;126721;1090;114326;-81
2021/06/14 05:30:13;;;;;;;6.00;3.10;;;;;;;15.60;64.60;100649.53;126878;1089;103096;-81
2021/06/14 05:33:01;;;;;;;5.53;2.53;;;;;;;15.92;64.28;100652.42;126775;1090;103138;-81
2021/06/14 05:35:49;;;;;;;6.53;2.60;;;;;;;16.22;63.72;100645.69;126655;1089;113069;-81
2021/06/14 05:38:38;;;;;;;7.10;2.37;;;;;;;16.54;63.12;100643.25;126814;1090;102756;-81
2021/06/14 05:41:25;;;;;;;7.60;3.80;;;;;;;16.86;62.40;100649.52;126812;1089;114089;-82
2021/06/14 05:44:14;;;;;;;5.53;2.77;;;;;;;17.21;62.01;100642.39;126784;1090;102892;-81
2021/06/14 05:47:02;;;;;;;6.73;2.97;;;;;;;17.56;61.46;100643.13;126635;1090;114849;-81
2021/06/14 05:49:51;;;;;;;4.83;2.30;;;;;;;17.99;60.64;100644.28;126908;1090;101626;-82
2021/06/14 05:52:39;;;;;;;5.73;2.30;;;;;;;18.35;59.29;100641.33;126913;1090;114075;-82
2021/06/14 05:55:28;;;;;;;5.00;2.17;;;;;;;19.14;58.94;100635.73;126744;1090;101170;-81
2021/06/14 05:58:16;;;;;;;10.17;3.30;;;;;;;20.13;57.00;100636.54;126747;1090;114757;-81
2021/06/14 06:01:04;;;;;;;5.73;2.40;;;;;;;21.90;55.44;100624.23;126838;1090;102862;-83
2021/06/14 06:03:53;;;;;;;4.87;2.10;;;;;;;24.47;52.04;100616.42;126645;1089;114484;-81
2021/06/14 06:06:40;;;;;;;4.90;2.30;;;;;;;26.63;47.35;100614.98;126767;1090;100828;-81
2021/06/14 06:09:28;;;;;;;5.53;2.40;;;;;;;28.41;44.58;100601.25;126872;1090;102933;-81
2021/06/14 06:12:16;;;;;;;6.27;1.97;;;;;;;30.04;41.78;100602.92;126819;1090;101798;-81
2021/06/14 06:15:06;;;;;;;3.23;2.00;;;;;;;31.56;39.57;100590.34;126769;1090;103010;-81
2021/06/14 06:17:56;;;;;;;3.30;1.83;;;;;;;32.67;36.02;100584.45;126755;1090;114268;-81
2021/06/14 06:20:45;;;;;;;3.73;1.87;;;;;;;33.21;34.27;100584.21;126866;1090;101700;-81
2021/06/14 06:23:33;;;;;;;4.43;1.80;;;;;;;33.99;33.46;100590.80;126775;1090;113301;-81
2021/06/14 06:26:20;;;;;;;4.03;1.90;;;;;;;35.03;32.36;100589.16;126862;1090;102920;-81
2021/06/14 06:29:08;;;;;;;5.37;2.03;;;;;;;35.97;30.52;100587.44;126714;1089;113969;-81
2021/06/14 06:31:56;;;;;;;3.80;2.20;;;;;;;36.28;28.80;100591.44;126839;1090;102952;-81
2021/06/14 06:34:44;;;;;;;5.17;1.90;;;;;;;36.76;27.60;100586.59;126744;1090;114099;-81
2021/06/14 06:37:32;;;;;;;3.77;1.40;;;;;;;37.35;27.43;100584.81;126771;1090;103027;-81
2021/06/14 06:40:22;;;;;;;2.53;1.40;;;;;;;38.17;25.97;100589.34;126879;1089;114349;-81
2021/06/14 06:43:09;;;;;;;3.87;1.43;;;;;;;38.66;25.40;100594.00;126788;1090;101518;-81
2021/06/14 06:45:57;;;;;;;4.57;1.63;;;;;;;39.25;24.08;100591.68;126749;1090;113252;-81
2021/06/14 06:48:45;;;;;;;3.33;1.70;;;;;;;39.24;23.68;100599.03;126797;1090;101621;-80
2021/06/14 06:51:33;;;;;;;2.50;1.53;;;;;;;39.61;23.82;100600.90;126930;1088;102943;-80
2021/06/14 06:54:22;;;;;;;2.13;1.30;;;;;;;40.00;22.94;100599.50;126754;1090;114021;-81
2021/06/14 06:57:10;;;;;;;3.70;1.60;;;;;;;40.30;22.48;100593.98;126861;1090;102875;-80
2021/06/14 06:59:58;;;;;;;2.60;1.50;;;;;;;40.27;20.78;100598.02;126742;1090;113078;-80
2021/06/14 07:02:46;;;;;;;2.43;1.00;;;;;;;40.45;20.50;100602.58;126867;1089;103028;-80
2021/06/14 07:05:53;;;;;;;1.87;1.10;;;;;;;40.38;20.20;100599.91;126736;1090;114455;-80
2021/06/14 07:08:42;;;;;;;1.87;1.00;;;;;;;40.29;19.84;100587.68;126893;1089;103016;-80
2021/06/14 07:11:32;;;;;;;1.00;0.80;;;;;;;40.17;19.33;100595.02;126740;1089;114479;-80
2021/06/14 07:14:19;;;;;;;1.83;0.80;;;;;;;40.14;19.00;100596.33;126885;1088;102870;-81
2021/06/14 07:17:08;;;;;;;1.30;0.80;;;;;;;40.11;18.73;100596.80;126811;1089;114121;-81
2021/06/14 07:19:56;;;;;;;2.20;0.77;;;;;;;40.08;18.59;100590.98;126830;1088;102903;-82
2021/06/14 07:22:44;;;;;;;1.47;1.17;;;;;;;40.18;18.58;100586.59;126773;1090;113239;-81
2021/06/14 07:25:32;;;;;;;2.07;1.20;;;;;;;40.39;18.21;100598.05;126849;1090;102897;-81
2021/06/14 07:28:21;;;;;;;1.63;0.90;;;;;;;40.60;17.97;100594.74;126652;1089;114266;-81
2021/06/14 07:31:10;;;;;;;2.00;1.10;;;;;;;40.62;17.63;100591.77;126712;1090;102980;-81
2021/06/14 07:34:01;;;;;;;1.30;0.80;;;;;;;40.42;17.40;100598.42;126889;1090;102967;-81
2021/06/14 07:36:48;;;;;;;2.63;1.00;;;;;;;40.18;17.50;100586.59;126860;1090;104562;-81
2021/06/14 07:39:37;;;;;;;3.10;1.00;;;;;;;40.31;17.05;100598.38;126714;1089;102941;-81
2021/06/14 07:42:25;;;;;;;1.30;1.03;;;;;;;40.30;17.35;100605.74;126639;1088;114264;-81
2021/06/14 07:45:21;;;;;;;1.77;0.90;;;;;;;40.51;16.80;100607.09;126818;1090;103009;-81
2021/06/14 07:48:10;;;;;;;0.97;0.70;;;;;;;40.79;17.09;100602.81;126690;1088;114256;-81
2021/06/14 07:50:59;;;;;;;1.63;1.00;;;;;;;41.15;16.49;100602.55;126761;1090;103090;-81
2021/06/14 07:53:50;;;;;;;2.07;0.80;;;;;;;41.27;16.69;100605.26;126730;1088;114508;-82
2021/06/14 07:56:43;;;;;;;1.73;0.90;;;;;;;41.39;15.95;100605.23;126762;1090;102706;-81
2021/06/14 07:59:31;;;;;;;2.57;0.90;;;;;;;41.22;15.42;100597.75;126668;1089;114162;-81
2021/06/14 08:02:18;;;;;;;1.00;0.70;;;;;;;40.52;15.68;100607.92;126824;1090;102759;-81
2021/06/14 08:05:07;;;;;;;4.93;1.00;;;;;;;39.97;16.01;100610.91;126749;1089;114287;-80
2021/06/14 08:07:55;;;;;;;0.90;0.80;;;;;;;39.90;16.37;100605.52;126686;1090;102847;-82
2021/06/14 08:10:44;;;;;;;1.43;0.90;;;;;;;39.90;16.01;100604.69;126808;1090;114314;-81
2021/06/14 08:13:33;;;;;;;5.33;0.90;;;;;;;39.93;16.19;100604.22;126841;1089;102920;-81
2021/06/14 08:16:39;;;;;;;1.00;0.90;;;;;;;40.07;16.79;100609.28;126634;1090;113144;-81
2021/06/14 08:19:38;;;;;;;1.23;0.90;;;;;;;39.85;15.66;100608.09;126828;1090;102916;-81
2021/06/14 08:22:39;;;;;;;1.20;0.87;;;;;;;39.48;16.46;100602.70;126810;1089;101708;-82
2021/06/14 08:25:37;;;;;;;2.63;1.00;;;;;;;39.52;16.55;100601.23;126764;1092;103041;-81
2021/06/14 08:28:26;;;;;;;1.87;0.97;;;;;;;39.48;16.31;100602.70;126773;1090;102663;-81
2021/06/14 08:31:13;;;;;;;4.00;1.00;;;;;;;39.40;16.30;100602.20;126580;1090;114172;-82
2021/06/14 08:34:02;;;;;;;3.20;1.07;;;;;;;39.20;16.21;100605.19;126707;1090;100474;-81
2021/06/14 08:36:50;;;;;;;1.40;1.20;;;;;;;39.20;16.37;100597.00;126623;1090;114121;-81
2021/06/14 08:39:38;;;;;;;2.23;1.00;;;;;;;38.93;16.43;100604.61;126680;1090;103001;-81
2021/06/14 08:42:26;;;;;;;1.37;0.87;;;;;;;38.65;16.48;100597.78;126567;1090;114147;-82
2021/06/14 08:45:15;;;;;;;0.97;0.97;;;;;;;38.36;16.14;100599.27;126780;1090;103108;-82
2021/06/14 08:48:06;;;;;;;2.00;1.00;;;;;;;37.99;16.54;100589.27;126668;1090;114159;-82
2021/06/14 08:50:54;;;;;;;1.83;1.37;;;;;;;37.58;16.96;100595.16;126784;1090;102852;-82
2021/06/14 08:53:43;;;;;;;1.10;0.80;;;;;;;37.49;16.90;100592.67;126880;1089;113160;-82
2021/06/14 08:56:30;;;;;;;1.97;0.90;;;;;;;37.05;16.88;100590.75;126912;1090;102933;-82
2021/06/14 08:59:18;;;;;;;2.50;0.90;;;;;;;36.51;17.37;100597.30;126821;1089;114264;-82
2021/06/14 09:02:07;;;;;;;2.20;1.10;;;;;;;36.30;17.74;100597.49;126783;1089;102892;-82
2021/06/14 09:04:56;;;;;;;1.43;0.80;;;;;;;36.23;17.52;100599.35;126961;1090;102919;-82
2021/06/14 09:07:44;;;;;;;1.10;0.63;;;;;;;35.87;17.46;100603.27;126753;1089;102854;-82
2021/06/14 09:10:39;;;;;;;1.93;0.97;;;;;;;35.57;18.50;100601.94;126812;1090;102932;-82
2021/06/14 09:13:31;;;;;;;1.00;0.70;;;;;;;35.71;18.57;100598.20;126752;1090;113158;-82
2021/06/14 09:16:21;;;;;;;1.13;0.80;;;;;;;35.53;18.00;100595.22;126842;1089;103023;-82
2021/06/14 09:19:38;;;;;;;3.20;1.37;;;;;;;35.21;18.82;100608.43;126769;1088;113060;-82
2021/06/14 09:22:27;;;;;;;1.30;0.80;;;;;;;35.19;18.62;100596.95;126952;1089;102891;-82
2021/06/14 09:25:16;;;;;;;1.30;1.00;;;;;;;35.05;18.75;100597.92;126769;1090;114374;-82
2021/06/14 09:28:10;;;;;;;1.50;1.20;;;;;;;35.26;18.69;100595.09;126849;1089;102921;-82
2021/06/14 09:31:11;;;;;;;1.30;1.00;;;;;;;35.22;18.94;100593.84;126745;1089;114817;-82
2021/06/14 09:33:59;;;;;;;3.37;1.00;;;;;;;35.10;19.57;100585.42;126833;1090;102875;-82
2021/06/14 09:36:59;;;;;;;1.33;0.97;;;;;;;34.74;19.77;100584.77;126604;1090;114538;-82
2021/06/14 09:39:49;;;;;;;2.50;0.97;;;;;;;33.94;19.51;100583.27;126875;1090;102879;-82
2021/06/14 09:42:41;;;;;;;1.77;1.00;;;;;;;33.71;19.70;100590.67;126740;1090;114320;-82
2021/06/14 09:45:28;;;;;;;1.60;0.80;;;;;;;33.60;20.22;100586.62;126895;1089;102874;-82
2021/06/14 09:48:26;;;;;;;1.47;0.90;;;;;;;33.46;20.49;100590.19;126730;1090;113325;-82
2021/06/14 09:51:15;;;;;;;1.97;1.10;;;;;;;33.64;20.45;100580.63;126847;1090;102930;-82
2021/06/14 09:54:03;;;;;;;3.23;1.10;;;;;;;33.64;20.14;100571.67;126742;1089;113924;-82
2021/06/14 09:56:54;;;;;;;2.60;1.20;;;;;;;33.10;20.42;100582.00;126835;1088;102898;-81
2021/06/14 09:59:44;;;;;;;1.00;0.90;;;;;;;32.46;21.08;100582.48;126764;1090;114486;-82
2021/06/14 10:02:36;;;;;;;3.03;1.00;;;;;;;32.02;21.48;100579.63;126816;1088;102900;-82
2021/06/14 10:05:25;;;;;;;1.37;0.80;;;;;;;31.85;21.57;100579.75;126763;1090;113422;-82
2021/06/14 10:08:28;;;;;;;1.53;0.90;;;;;;;32.04;22.33;100596.47;126874;1090;102962;-81
2021/06/14 10:11:19;;;;;;;2.53;1.00;;;;;;;32.39;22.06;100586.94;126911;1090;102887;-81
2021/06/14 10:14:12;;;;;;;1.80;0.93;;;;;;;32.46;22.31;100577.08;126961;1090;113935;-81
2021/06/14 10:17:04;;;;;;;2.03;1.17;;;;;;;32.72;22.16;100571.27;126884;1090;102831;-83
2021/06/14 10:19:52;;;;;;;2.83;1.40;;;;;;;33.04;22.03;100570.92;126825;1090;114122;-82
2021/06/14 10:22:41;;;;;;;1.93;0.90;;;;;;;33.05;21.74;100569.90;126887;1090;103078;-81
2021/06/14 10:25:49;;;;;;;7.37;6.20;;;;;;;33.03;21.71;100562.98;126701;1089;114191;-83
2021/06/14 10:28:39;;;;;;;2.37;1.20;;;;;;;32.69;21.84;100566.23;126931;1090;102852;-83
2021/06/14 10:31:28;;;;;;;3.87;1.10;;;;;;;32.04;21.70;100573.03;126693;1088;114306;-83
2021/06/14 10:34:17;;;;;;;1.40;0.70;;;;;;;31.43;22.92;100573.92;126886;1090;102847;-83
2021/06/14 10:37:06;;;;;;;3.07;1.00;;;;;;;31.25;22.50;100575.02;126766;1089;114355;-83
2021/06/14 10:39:55;;;;;;;2.40;1.00;;;;;;;31.16;23.08;100572.48;126852;1090;102974;-83
2021/06/14 10:42:45;;;;;;;2.73;1.23;;;;;;;30.71;22.97;100565.08;126691;1088;114392;-83
2021/06/14 10:45:34;;;;;;;2.70;1.37;;;;;;;30.51;23.38;100562.69;126885;1090;102847;-82
2021/06/14 10:48:36;;;;;;;2.53;0.90;;;;;;;30.52;23.84;100563.53;126851;1088;113269;-83
2021/06/14 10:51:25;;;;;;;2.87;1.20;;;;;;;29.79;24.08;100567.03;127004;1088;102644;-83
2021/06/14 10:54:17;;;;;;;1.83;0.90;;;;;;;29.13;24.26;100565.99;126838;1090;114464;-83
2021/06/14 10:57:09;;;;;;;1.73;0.80;;;;;;;28.73;24.74;100561.23;126811;1090;103119;-82
2021/06/14 10:59:57;;;;;;;1.07;0.80;;;;;;;28.42;24.95;100560.02;126769;1089;114267;-83
2021/06/14 11:02:58;;;;;;;2.83;0.90;;;;;;;28.07;25.88;100567.08;126934;1090;102847;-83
2021/06/14 11:05:48;;;;;;;1.20;0.87;;;;;;;28.05;26.28;100554.83;126710;1090;114307;-82
2021/06/14 11:08:37;;;;;;;1.83;0.93;;;;;;;28.26;26.65;100550.84;126914;1090;102904;-83
2021/06/14 11:11:25;;;;;;;2.07;1.07;;;;;;;28.34;26.66;100565.30;126904;1089;102850;-84
2021/06/14 11:14:32;;;;;;;3.20;1.10;;;;;;;28.39;26.54;100560.33;126852;1089;114335;-83
2021/06/14 11:17:27;;;;;;;4.00;1.07;;;;;;;28.62;26.60;100552.59;126877;1090;103018;-83
2021/06/14 11:20:16;;;;;;;1.87;1.13;;;;;;;28.78;27.19;100545.48;126949;1090;114079;-83
2021/06/14 11:23:06;;;;;;;1.70;0.90;;;;;;;28.91;26.22;100537.03;126824;1089;103380;-83
2021/06/14 11:25:59;;;;;;;3.07;1.40;;;;;;;28.75;25.53;100535.07;126895;1089;113338;-83
2021/06/14 11:28:48;;;;;;;2.63;1.00;;;;;;;28.68;25.76;100528.64;126873;1088;102930;-84
2021/06/14 11:31:37;;;;;;;2.30;1.23;;;;;;;28.66;26.10;100519.91;126722;1090;114340;-81
2021/06/14 11:34:27;;;;;;;3.47;1.80;;;;;;;28.44;26.41;100526.66;127035;1088;102989;-82
2021/06/14 11:37:16;;;;;;;1.60;1.10;;;;;;;27.97;26.81;100539.49;126718;1090;114107;-82
2021/06/14 11:40:06;;;;;;;1.03;0.87;;;;;;;27.82;26.68;100530.30;126877;1090;103897;-82
2021/06/14 11:43:00;;;;;;;1.67;0.93;;;;;;;27.86;26.22;100526.34;126749;1089;114075;-82
2021/06/14 11:45:54;;;;;;;2.83;0.87;;;;;;;27.93;26.75;100522.04;126840;1089;102870;-81
2021/06/14 11:48:47;;;;;;;2.97;1.00;;;;;;;28.16;26.86;100514.34;126693;1090;113132;-81
2021/06/14 11:51:43;;;;;;;1.53;0.93;;;;;;;28.23;27.50;100516.26;126827;1090;103121;-82
2021/06/14 11:54:33;;;;;;;1.23;0.70;;;;;;;28.20;27.18;100502.33;126737;1089;114229;-81
2021/06/14 11:57:35;;;;;;;1.53;1.10;;;;;;;27.72;26.35;100519.68;126895;1088;102919;-83
2021/06/14 12:00:59;;;;;;;2.83;1.40;;;;;;;27.60;26.67;100505.63;126763;1089;114450;-82
2021/06/14 12:03:56;;;;;;;3.57;1.40;;;;;;;27.72;27.42;100500.92;126885;1089;102757;-82
2021/06/14 12:06:46;;;;;;;1.40;0.90;;;;;;;27.76;26.97;100498.77;126686;1089;114143;-82
2021/06/14 12:09:39;;;;;;;1.77;0.90;;;;;;;27.71;27.48;100501.92;126735;1089;103037;-81
2021/06/14 12:12:28;;;;;;;1.47;0.80;;;;;;;27.54;27.08;100500.89;126727;1090;114351;-81
2021/06/14 12:15:17;;;;;;;1.60;0.67;;;;;;;27.55;27.62;100501.73;126942;1090;103034;-81
2021/06/14 12:18:12;;;;;;;2.57;1.03;;;;;;;27.61;28.39;100495.75;126663;1090;114430;-82
2021/06/14 12:21:06;;;;;;;4.63;1.07;;;;;;;27.70;27.72;100494.88;126840;1090;102917;-83
2021/06/14 12:23:55;;;;;;;1.77;1.00;;;;;;;27.63;27.06;100494.63;126720;1089;114240;-82
2021/06/14 12:26:45;;;;;;;1.97;0.73;;;;;;;27.60;27.05;100496.74;126818;1090;102940;-83
2021/06/14 12:29:34;;;;;;;1.47;0.80;;;;;;;27.61;26.85;100493.91;126777;1088;102852;-82
2021/06/14 12:32:25;;;;;;;2.83;1.10;;;;;;;27.42;27.11;100486.02;126743;1089;114387;-82
2021/06/14 12:35:16;;;;;;;2.37;1.30;;;;;;;27.32;27.28;100493.30;126807;1089;102948;-83
2021/06/14 12:38:29;;;;;;;2.05;1.15;;;;;;;27.31;27.88;100491.61;126706;1090;114300;-82
2021/06/14 12:41:18;;;;;;;2.50;1.33;;;;;;;27.30;27.74;100492.61;126836;1089;103058;-82
2021/06/14 12:44:14;;;;;;;2.87;1.10;;;;;;;27.24;27.10;100488.67;126831;1088;113201;-82
2021/06/14 12:47:03;;;;;;;1.47;1.10;;;;;;;26.92;27.39;100486.42;126926;1088;103677;-82
2021/06/14 12:49:52;;;;;;;2.63;1.10;;;;;;;26.67;28.05;100490.63;126727;1090;114156;-82
2021/06/14 12:52:40;;;;;;;4.30;1.05;;;;;;;26.24;27.85;100483.15;126771;1089;100963;-82
2021/06/14 12:56:03;;;;;;;2.70;1.20;;;;;;;25.89;28.26;100489.11;126778;1089;113025;-83
2021/06/14 12:59:48;;;;;;;2.93;1.00;;;;;;;25.81;28.60;100484.45;126844;1088;102804;-82